Time;durP1;ratioP1;P1;durP2;ratioP2;P2;SDS_P1;SDS_P2;PMS_P1;PMS_P2;Temp;Humidity;BMP_temperature;BMP_pressure;BME280_temperature;BME280_humidity;BME280_pressure;Samples;Min_cycle;Max_cycle;Signal;HPM_P1;HPM_P2
2023/02/26 00:01:02;;;;;;;3.10;1.60;;;;;;;;;;5031930;28;20080;-80
2023/02/26 00:03:28;;;;;;;3.53;1.30;;;;;;;;;;5032115;28;20707;-79
2023/02/26 00:06:00;;;;;;;5.47;1.30;;;;;;;;;;5030132;28;20049;-80
2023/02/26 00:08:27;;;;;;;2.75;1.30;;;;;;;;;;5032214;28;20122;-78
2023/02/26 00:10:53;;;;;;;1.90;1.02;;;;;;;;;;5028919;28;20136;-79
2023/02/26 00:13:20;;;;;;;6.00;1.20;;;;;;;;;;5032920;28;20075;-79
2023/02/26 00:15:49;;;;;;;3.22;1.35;;;;;;;;;;5031907;28;20064;-79
2023/02/26 00:18:16;;;;;;;4.65;1.15;;;;;;;;;;5031221;28;20143;-79
2023/02/26 00:20:43;;;;;;;1.40;0.80;;;;;;;;;;5013579;28;20049;-79
2023/02/26 00:23:16;;;;;;;7.05;1.20;;;;;;;;;;5014710;28;20061;-79
2023/02/26 00:25:43;;;;;;;4.03;1.50;;;;;;;;;;5030862;28;20052;-79
2023/02/26 00:28:10;;;;;;;4.25;1.60;;;;;;;;;;5030034;28;20132;-78
2023/02/26 00:30:39;;;;;;;7.70;1.92;;;;;;;;;;5051093;28;20156;-78
2023/02/26 00:33:06;;;;;;;2.85;0.98;;;;;;;;;;5052060;28;20076;-79
2023/02/26 00:35:33;;;;;;;5.28;1.20;;;;;;;;;;5029693;28;20053;-78
2023/02/26 00:37:59;;;;;;;3.97;1.10;;;;;;;;;;5030985;28;20135;-80
2023/02/26 00:40:44;;;;;;;2.38;1.05;;;;;;;;;;5038945;28;20037;-79
2023/02/26 00:43:17;;;;;;;4.15;1.73;;;;;;;;;;5011295;28;20050;-77
2023/02/26 00:45:57;;;;;;;11.73;2.05;;;;;;;;;;5012417;28;20050;-80
2023/02/26 00:48:29;;;;;;;4.10;1.65;;;;;;;;;;5030207;28;20489;-79
2023/02/26 00:51:05;;;;;;;6.93;1.42;;;;;;;;;;5040909;28;20410;-79
2023/02/26 00:53:31;;;;;;;;;;;;;;;;;;5031495;28;20080;-79
2023/02/26 00:55:57;;;;;;;4.88;2.20;;;;;;;;;;5029460;28;19935;-79
2023/02/26 00:58:24;;;;;;;5.03;2.25;;;;;;;;;;5030205;28;20433;-79
2023/02/26 01:00:50;;;;;;;6.28;2.30;;;;;;;;;;5029948;28;20099;-79
2023/02/26 01:03:17;;;;;;;6.82;2.60;;;;;;;;;;5013860;28;20045;-78
2023/02/26 01:05:43;;;;;;;3.92;1.90;;;;;;;;;;5029452;28;20094;-79
2023/02/26 01:08:29;;;;;;;7.70;2.10;;;;;;;;;;5029749;28;20063;-79
2023/02/26 01:10:56;;;;;;;7.85;2.67;;;;;;;;;;5028662;28;20350;-79
2023/02/26 01:13:23;;;;;;;4.82;2.40;;;;;;;;;;5030136;28;20050;-78
2023/02/26 01:15:54;;;;;;;8.20;3.53;;;;;;;;;;5030848;28;20057;-81
2023/02/26 01:18:24;;;;;;;6.20;2.83;;;;;;;;;;5029349;28;20129;-80
2023/02/26 01:21:00;;;;;;;9.88;2.67;;;;;;;;;;5012965;28;20084;-78
2023/02/26 01:23:26;;;;;;;;;;;;;;;;;;5015769;28;21185;-78
2023/02/26 01:25:57;;;;;;;6.35;3.05;;;;;;;;;;5022510;28;19936;-78
2023/02/26 01:28:24;;;;;;;4.72;2.60;;;;;;;;;;5013494;28;20046;-78
2023/02/26 01:31:00;;;;;;;6.25;3.00;;;;;;;;;;5040297;28;20139;-78
2023/02/26 01:33:30;;;;;;;11.13;2.80;;;;;;;;;;5012734;28;20050;-79
2023/02/26 01:36:02;;;;;;;7.05;2.85;;;;;;;;;;5013909;28;20421;-80
2023/02/26 01:38:42;;;;;;;5.13;2.70;;;;;;;;;;5026217;28;20133;-77
2023/02/26 01:41:11;;;;;;;7.70;2.85;;;;;;;;;;5029239;28;20319;-78
2023/02/26 01:43:56;;;;;;;8.18;2.90;;;;;;;;;;5030337;28;20087;-80
2023/02/26 01:46:42;;;;;;;5.45;2.90;;;;;;;;;;5050722;28;20064;-79
2023/02/26 01:49:08;;;;;;;;;;;;;;;;;;5050868;28;20045;-79
2023/02/26 01:51:42;;;;;;;5.05;2.42;;;;;;;;;;5031090;28;19925;-79
2023/02/26 01:54:09;;;;;;;7.57;2.53;;;;;;;;;;5029933;28;20052;-79
2023/02/26 01:56:36;;;;;;;5.35;2.17;;;;;;;;;;5010115;28;20049;-78
2023/02/26 01:59:04;;;;;;;4.95;2.30;;;;;;;;;;5029396;28;20144;-79
2023/02/26 02:01:31;;;;;;;6.57;2.60;;;;;;;;;;5030825;28;20045;-79
2023/02/26 02:03:58;;;;;;;6.18;2.47;;;;;;;;;;5028923;28;20565;-80
2023/02/26 02:06:26;;;;;;;3.45;1.92;;;;;;;;;;5029841;28;20084;-80
2023/02/26 02:08:53;;;;;;;3.00;1.70;;;;;;;;;;5027260;28;20081;-79
2023/02/26 02:11:20;;;;;;;5.47;2.33;;;;;;;;;;5029268;28;20065;-81
2023/02/26 02:13:49;;;;;;;4.95;1.98;;;;;;;;;;5029809;28;20494;-80
2023/02/26 02:16:21;;;;;;;3.97;1.80;;;;;;;;;;5030441;28;20068;-80
2023/02/26 02:18:52;;;;;;;5.07;1.92;;;;;;;;;;5029794;28;20049;-79
2023/02/26 02:21:24;;;;;;;4.82;1.90;;;;;;;;;;5031533;28;20060;-77
2023/02/26 02:24:09;;;;;;;8.10;2.25;;;;;;;;;;5036319;28;20053;-80
2023/02/26 02:26:52;;;;;;;4.97;2.00;;;;;;;;;;5018817;28;20152;-80
2023/02/26 02:29:24;;;;;;;3.90;2.00;;;;;;;;;;5033769;28;20056;-79
2023/02/26 02:31:54;;;;;;;4.68;1.95;;;;;;;;;;5050213;28;20056;-80
2023/02/26 02:34:26;;;;;;;3.42;1.70;;;;;;;;;;5015718;28;20051;-81
2023/02/26 02:37:01;;;;;;;2.97;1.80;;;;;;;;;;5034493;28;20057;-81
2023/02/26 02:39:30;;;;;;;4.45;2.17;;;;;;;;;;5015797;28;20219;-80
2023/02/26 02:42:03;;;;;;;4.72;2.10;;;;;;;;;;5032221;28;20081;-79
2023/02/26 02:44:31;;;;;;;5.10;2.00;;;;;;;;;;5035390;28;20049;-78
2023/02/26 02:46:58;;;;;;;4.93;2.20;;;;;;;;;;5033389;28;20049;-80
2023/02/26 02:49:30;;;;;;;6.05;2.05;;;;;;;;;;5033920;28;20087;-80
2023/02/26 02:52:06;;;;;;;4.07;1.88;;;;;;;;;;5014898;28;20053;-80
2023/02/26 02:54:46;;;;;;;4.57;2.25;;;;;;;;;;5022770;28;20574;-79
2023/02/26 02:57:16;;;;;;;5.70;2.53;;;;;;;;;;5032495;28;20133;-78
2023/02/26 02:59:44;;;;;;;4.03;2.10;;;;;;;;;;5034378;28;20189;-79
2023/02/26 03:02:21;;;;;;;5.68;2.30;;;;;;;;;;5015432;28;20465;-80
2023/02/26 03:04:47;;;;;;;5.00;2.40;;;;;;;;;;5034549;28;20069;-80
2023/02/26 03:07:14;;;;;;;5.38;2.50;;;;;;;;;;5032850;28;20200;-81
2023/02/26 03:09:41;;;;;;;5.22;2.47;;;;;;;;;;5033797;28;20053;-80
2023/02/26 03:12:07;;;;;;;3.85;2.28;;;;;;;;;;5031713;28;20665;-79
2023/02/26 03:14:34;;;;;;;4.68;2.55;;;;;;;;;;5036101;28;20388;-79
2023/02/26 03:17:19;;;;;;;4.15;2.63;;;;;;;;;;5053291;28;20571;-80
2023/02/26 03:19:46;;;;;;;;;;;;;;;;;;5039162;28;20392;-80
2023/02/26 03:22:21;;;;;;;6.45;2.80;;;;;;;;;;5055557;28;19990;-79
2023/02/26 03:24:57;;;;;;;5.28;2.85;;;;;;;;;;5042253;28;20079;-78
2023/02/26 03:27:32;;;;;;;5.13;3.05;;;;;;;;;;5031634;28;20157;-79
2023/02/26 03:30:14;;;;;;;6.32;2.90;;;;;;;;;;5013190;28;20045;-78
2023/02/26 03:32:51;;;;;;;5.57;2.97;;;;;;;;;;5013918;28;20064;-79
2023/02/26 03:35:21;;;;;;;4.55;3.00;;;;;;;;;;5018994;28;20160;-79
2023/02/26 03:37:50;;;;;;;8.07;3.25;;;;;;;;;;5032040;28;20088;-79
2023/02/26 03:40:36;;;;;;;8.57;3.45;;;;;;;;;;5036569;28;20063;-78
2023/02/26 03:43:08;;;;;;;6.50;3.40;;;;;;;;;;5030692;28;20217;-79
2023/02/26 03:45:36;;;;;;;7.82;3.22;;;;;;;;;;5030997;28;20116;-80
2023/02/26 03:48:04;;;;;;;4.70;3.00;;;;;;;;;;5036119;28;20052;-79
2023/02/26 03:50:36;;;;;;;7.68;3.60;;;;;;;;;;5012119;28;20064;-80
2023/02/26 03:53:06;;;;;;;4.80;2.95;;;;;;;;;;5029877;28;20060;-78
2023/02/26 03:55:42;;;;;;;5.07;2.97;;;;;;;;;;5028421;28;20120;-79
2023/02/26 03:58:09;;;;;;;9.38;3.58;;;;;;;;;;5011304;28;20140;-78
2023/02/26 04:00:36;;;;;;;6.05;3.00;;;;;;;;;;5030798;28;20410;-79
2023/02/26 04:03:09;;;;;;;4.47;2.60;;;;;;;;;;5030648;28;20056;-79
2023/02/26 04:05:39;;;;;;;9.98;3.85;;;;;;;;;;5032511;28;20376;-78
2023/02/26 04:08:06;;;;;;;5.13;2.75;;;;;;;;;;5030837;28;20049;-79
2023/02/26 04:10:36;;;;;;;7.30;2.90;;;;;;;;;;5030255;28;20068;-78
2023/02/26 04:13:03;;;;;;;5.22;2.95;;;;;;;;;;5031945;28;20095;-80
2023/02/26 04:15:29;;;;;;;5.97;3.15;;;;;;;;;;5046327;28;20048;-78
2023/02/26 04:17:55;;;;;;;6.07;3.08;;;;;;;;;;5047828;28;20048;-79
2023/02/26 04:20:22;;;;;;;5.60;3.42;;;;;;;;;;5047368;28;20057;-78
2023/02/26 04:22:48;;;;;;;5.18;3.00;;;;;;;;;;5047940;28;20117;-78
2023/02/26 04:25:15;;;;;;;8.38;3.03;;;;;;;;;;5035173;28;20129;-80
2023/02/26 04:27:41;;;;;;;6.45;2.70;;;;;;;;;;5032739;28;20064;-79
2023/02/26 04:30:08;;;;;;;7.05;2.80;;;;;;;;;;5036805;28;20086;-80
2023/02/26 04:32:34;;;;;;;4.78;2.90;;;;;;;;;;5033303;28;20176;-81
2023/02/26 04:35:01;;;;;;;9.75;3.38;;;;;;;;;;5032864;28;20439;-81
2023/02/26 04:37:27;;;;;;;7.03;3.10;;;;;;;;;;5033746;28;20263;-80
2023/02/26 04:39:55;;;;;;;8.25;2.58;;;;;;;;;;5033377;28;20496;-80
2023/02/26 04:42:23;;;;;;;7.75;2.72;;;;;;;;;;5029417;28;20046;-79
2023/02/26 04:44:50;;;;;;;4.25;2.50;;;;;;;;;;5019376;28;20045;-79
2023/02/26 04:47:16;;;;;;;5.57;2.40;;;;;;;;;;5034259;28;20088;-80
2023/02/26 04:49:42;;;;;;;3.72;2.35;;;;;;;;;;5031910;28;20056;-80
2023/02/26 04:52:09;;;;;;;4.47;2.53;;;;;;;;;;5032636;28;20548;-80
2023/02/26 04:54:36;;;;;;;3.70;2.42;;;;;;;;;;5029786;28;20166;-80
2023/02/26 04:57:03;;;;;;;5.40;2.55;;;;;;;;;;5027982;28;20128;-79
2023/02/26 04:59:29;;;;;;;4.65;2.60;;;;;;;;;;5030439;28;20061;-80
2023/02/26 05:01:56;;;;;;;4.15;2.53;;;;;;;;;;5031329;28;20465;-80
2023/02/26 05:04:22;;;;;;;4.30;2.63;;;;;;;;;;5030786;28;20073;-79
2023/02/26 05:06:48;;;;;;;6.88;2.78;;;;;;;;;;5012627;28;20517;-80
2023/02/26 05:09:15;;;;;;;4.55;2.58;;;;;;;;;;5030390;28;20049;-79
2023/02/26 05:11:42;;;;;;;7.57;2.83;;;;;;;;;;5029875;28;20049;-80
2023/02/26 05:14:08;;;;;;;6.10;3.33;;;;;;;;;;5028806;28;20160;-80
2023/02/26 05:16:34;;;;;;;3.83;2.33;;;;;;;;;;5031489;28;20516;-79
2023/02/26 05:19:01;;;;;;;5.55;2.80;;;;;;;;;;5030183;28;20498;-80
2023/02/26 05:21:27;;;;;;;5.65;2.80;;;;;;;;;;5029327;28;20139;-78
2023/02/26 05:23:54;;;;;;;4.85;2.38;;;;;;;;;;5028892;28;20097;-79
2023/02/26 05:26:20;;;;;;;5.88;2.50;;;;;;;;;;5029863;28;20060;-80
2023/02/26 05:28:50;;;;;;;11.43;4.85;;;;;;;;;;5029668;28;20057;-79
2023/02/26 05:31:16;;;;;;;17.42;6.88;;;;;;;;;;5021983;28;20068;-79
2023/02/26 05:33:43;;;;;;;13.82;5.07;;;;;;;;;;5019291;28;20512;-79
2023/02/26 05:36:10;;;;;;;14.40;5.97;;;;;;;;;;5038413;28;20052;-79
2023/02/26 05:38:36;;;;;;;13.75;4.85;;;;;;;;;;5032251;28;20079;-79
2023/02/26 05:41:03;;;;;;;13.43;5.75;;;;;;;;;;5018276;28;20056;-80
2023/02/26 05:43:29;;;;;;;9.52;4.13;;;;;;;;;;5032220;28;20077;-80
2023/02/26 05:45:56;;;;;;;15.18;5.53;;;;;;;;;;5044499;28;20516;-79
2023/02/26 05:48:22;;;;;;;18.05;6.40;;;;;;;;;;5029513;28;20055;-80
2023/02/26 05:50:49;;;;;;;10.75;4.43;;;;;;;;;;5030169;28;20457;-79
2023/02/26 05:53:15;;;;;;;12.52;4.85;;;;;;;;;;5029213;28;20557;-80
2023/02/26 05:55:42;;;;;;;12.27;4.60;;;;;;;;;;5030513;28;20437;-79
2023/02/26 05:58:09;;;;;;;9.23;4.43;;;;;;;;;;5036124;28;20049;-79
2023/02/26 06:00:35;;;;;;;27.20;8.13;;;;;;;;;;5035443;28;20049;-80
2023/02/26 06:03:02;;;;;;;6.78;3.47;;;;;;;;;;5033152;28;20060;-81
2023/02/26 06:05:28;;;;;;;7.60;3.47;;;;;;;;;;5034244;28;20053;-79
2023/02/26 06:07:55;;;;;;;8.27;3.85;;;;;;;;;;5033285;28;20104;-80
2023/02/26 06:10:21;;;;;;;11.70;3.85;;;;;;;;;;5036148;28;20523;-79
2023/02/26 06:12:48;;;;;;;46.17;13.55;;;;;;;;;;5027037;28;20105;-80
2023/02/26 06:15:14;;;;;;;21.25;7.65;;;;;;;;;;5039897;28;20080;-80
2023/02/26 06:17:41;;;;;;;9.90;4.25;;;;;;;;;;5040131;28;20081;-79
2023/02/26 06:20:08;;;;;;;11.98;4.63;;;;;;;;;;5020745;28;20052;-80
2023/02/26 06:22:34;;;;;;;22.42;7.95;;;;;;;;;;5038526;28;20056;-80
2023/02/26 06:25:01;;;;;;;31.02;9.70;;;;;;;;;;5035535;28;20049;-81
2023/02/26 06:27:27;;;;;;;13.57;5.22;;;;;;;;;;5042756;28;20060;-81
2023/02/26 06:29:53;;;;;;;12.55;5.63;;;;;;;;;;5047821;28;20137;-80
2023/02/26 06:32:20;;;;;;;22.88;7.97;;;;;;;;;;5046377;28;20342;-80
2023/02/26 06:34:49;;;;;;;17.65;6.57;;;;;;;;;;5044901;28;20061;-81
2023/02/26 06:37:15;;;;;;;32.63;12.38;;;;;;;;;;5040002;28;20064;-81
2023/02/26 06:39:42;;;;;;;36.35;11.20;;;;;;;;;;5041658;28;20057;-81
2023/02/26 06:42:08;;;;;;;19.20;6.75;;;;;;;;;;5056747;28;20083;-80
2023/02/26 06:44:35;;;;;;;35.78;11.82;;;;;;;;;;5026477;28;20128;-80
2023/02/26 06:47:01;;;;;;;21.83;8.13;;;;;;;;;;5034208;28;20114;-80
2023/02/26 06:49:28;;;;;;;18.75;7.00;;;;;;;;;;5032571;28;20049;-81
2023/02/26 06:51:54;;;;;;;16.27;6.53;;;;;;;;;;5033531;28;20065;-79
2023/02/26 06:54:20;;;;;;;32.55;11.45;;;;;;;;;;5029626;28;20096;-80
2023/02/26 06:56:47;;;;;;;19.85;7.90;;;;;;;;;;5031762;28;20053;-79
2023/02/26 06:59:14;;;;;;;21.90;7.07;;;;;;;;;;5038175;28;20085;-79
2023/02/26 07:01:40;;;;;;;15.93;6.40;;;;;;;;;;5032835;28;20156;-79
2023/02/26 07:04:07;;;;;;;12.75;5.03;;;;;;;;;;5030486;28;20049;-79
2023/02/26 07:06:33;;;;;;;14.57;5.15;;;;;;;;;;5034752;28;20095;-76
2023/02/26 07:09:00;;;;;;;10.57;4.95;;;;;;;;;;5029378;28;20619;-81
2023/02/26 07:11:26;;;;;;;12.07;4.78;;;;;;;;;;5028777;28;20117;-79
2023/02/26 07:13:53;;;;;;;8.05;4.22;;;;;;;;;;5017555;28;20069;-81
2023/02/26 07:16:20;;;;;;;10.27;4.18;;;;;;;;;;5033306;28;20042;-80
2023/02/26 07:18:46;;;;;;;7.28;3.60;;;;;;;;;;5031687;28;20569;-80
2023/02/26 07:21:13;;;;;;;6.95;3.80;;;;;;;;;;5030610;28;20050;-81
2023/02/26 07:23:39;;;;;;;12.05;4.32;;;;;;;;;;5032882;28;20056;-81
2023/02/26 07:26:07;;;;;;;9.77;4.30;;;;;;;;;;5032823;28;20568;-80
2023/02/26 07:28:34;;;;;;;14.15;4.65;;;;;;;;;;5038660;28;20056;-80
2023/02/26 07:31:00;;;;;;;6.25;3.35;;;;;;;;;;5031114;28;20068;-79
2023/02/26 07:33:27;;;;;;;18.15;7.25;;;;;;;;;;5034447;28;20093;-79
2023/02/26 07:35:54;;;;;;;19.27;6.60;;;;;;;;;;5033402;28;20061;-79
2023/02/26 07:38:20;;;;;;;17.30;6.63;;;;;;;;;;5032624;28;20063;-80
2023/02/26 07:40:47;;;;;;;8.25;4.00;;;;;;;;;;5029883;28;20053;-79
2023/02/26 07:43:13;;;;;;;10.85;4.38;;;;;;;;;;5035472;28;20049;-81
2023/02/26 07:45:40;;;;;;;13.23;6.05;;;;;;;;;;5013122;28;20053;-80
2023/02/26 07:48:06;;;;;;;11.45;5.03;;;;;;;;;;5032417;28;20049;-79
2023/02/26 07:50:33;;;;;;;10.93;4.57;;;;;;;;;;5031025;28;20500;-79
2023/02/26 07:52:59;;;;;;;14.70;4.80;;;;;;;;;;5040078;28;20085;-79
2023/02/26 07:55:26;;;;;;;12.52;3.25;;;;;;;;;;5029460;28;20049;-80
2023/02/26 07:57:53;;;;;;;8.55;2.60;;;;;;;;;;5022414;28;20071;-78
2023/02/26 08:00:19;;;;;;;9.25;2.63;;;;;;;;;;5028732;28;20528;-80
2023/02/26 08:02:46;;;;;;;7.25;2.90;;;;;;;;;;5028406;28;20133;-79
2023/02/26 08:05:13;;;;;;;13.43;5.28;;;;;;;;;;5029906;28;20096;-79
2023/02/26 08:07:39;;;;;;;7.28;3.58;;;;;;;;;;5027903;28;20053;-80
2023/02/26 08:10:07;;;;;;;17.05;6.80;;;;;;;;;;5025700;28;20127;-78
2023/02/26 08:12:35;;;;;;;8.82;3.25;;;;;;;;;;5026198;28;20297;-80
2023/02/26 08:15:02;;;;;;;15.05;4.65;;;;;;;;;;5031742;28;20049;-80
2023/02/26 08:17:28;;;;;;;13.00;4.72;;;;;;;;;;5030941;28;20129;-80
2023/02/26 08:19:54;;;;;;;16.27;4.55;;;;;;;;;;5030910;28;20099;-80
2023/02/26 08:22:22;;;;;;;15.80;5.40;;;;;;;;;;5028008;28;20053;-81
2023/02/26 08:24:49;;;;;;;15.57;4.28;;;;;;;;;;5025746;28;20064;-79
2023/02/26 08:27:16;;;;;;;14.40;5.22;;;;;;;;;;5028499;28;20455;-81
2023/02/26 08:29:45;;;;;;;15.48;6.07;;;;;;;;;;5029724;28;20114;-82
2023/02/26 08:32:11;;;;;;;17.73;5.72;;;;;;;;;;5028207;28;20049;-80
2023/02/26 08:34:38;;;;;;;10.07;3.70;;;;;;;;;;5031447;28;20534;-81
2023/02/26 08:37:05;;;;;;;8.73;2.60;;;;;;;;;;5034007;28;20059;-81
2023/02/26 08:39:34;;;;;;;6.97;2.33;;;;;;;;;;5029146;28;20049;-80
2023/02/26 08:42:00;;;;;;;16.63;5.55;;;;;;;;;;5033050;28;20059;-81
2023/02/26 08:44:27;;;;;;;11.82;4.18;;;;;;;;;;5031706;28;20045;-82
2023/02/26 08:46:55;;;;;;;9.02;3.33;;;;;;;;;;5014123;28;20081;-82
2023/02/26 08:49:22;;;;;;;13.32;4.10;;;;;;;;;;5033212;28;20160;-83
2023/02/26 08:51:48;;;;;;;14.05;4.20;;;;;;;;;;5051560;28;20222;-81
2023/02/26 08:54:15;;;;;;;14.23;4.82;;;;;;;;;;5034199;28;20045;-80
2023/02/26 08:56:41;;;;;;;21.67;6.13;;;;;;;;;;5028805;28;20079;-80
2023/02/26 08:59:10;;;;;;;8.50;3.33;;;;;;;;;;5030901;28;20041;-79
2023/02/26 09:01:36;;;;;;;11.43;2.83;;;;;;;;;;5030687;28;20049;-80
2023/02/26 09:04:03;;;;;;;12.15;2.85;;;;;;;;;;5027314;28;20501;-79
2023/02/26 09:06:30;;;;;;;12.63;2.67;;;;;;;;;;5028020;28;20659;-80
2023/02/26 09:08:56;;;;;;;6.72;2.17;;;;;;;;;;5025999;28;20045;-80
2023/02/26 09:11:23;;;;;;;7.53;2.53;;;;;;;;;;5006878;28;80674;-80
2023/02/26 09:13:50;;;;;;;7.18;2.65;;;;;;;;;;5007529;28;20061;-81
2023/02/26 09:17:52;;;;;;;7.78;2.28;;;;;;;;;;5032967;27;1373779;-80
2023/02/26 09:20:19;;;;;;;13.63;3.00;;;;;;;;;;5086013;28;20121;-82
2023/02/26 09:22:45;;;;;;;9.82;1.58;;;;;;;;;;5117018;28;20067;-81
2023/02/26 09:25:12;;;;;;;6.90;2.47;;;;;;;;;;5126592;28;20048;-81
2023/02/26 09:27:39;;;;;;;5.75;1.90;;;;;;;;;;5113305;28;20119;-80
2023/02/26 09:30:06;;;;;;;6.95;1.70;;;;;;;;;;5110130;28;20047;-81
2023/02/26 09:32:33;;;;;;;10.68;2.20;;;;;;;;;;5110634;28;20036;-80
2023/02/26 09:35:00;;;;;;;7.15;2.05;;;;;;;;;;5087167;28;20055;-81
2023/02/26 09:37:26;;;;;;;13.45;2.13;;;;;;;;;;5091191;28;20370;-81
2023/02/26 09:39:53;;;;;;;6.88;1.58;;;;;;;;;;5104430;28;20052;-81
2023/02/26 09:42:39;;;;;;;9.65;2.50;;;;;;;;;;5083821;28;20044;-81
2023/02/26 09:45:10;;;;;;;11.43;2.70;;;;;;;;;;5102181;28;20048;-81
2023/02/26 09:47:42;;;;;;;4.03;1.30;;;;;;;;;;5102083;28;20047;-81
2023/02/26 09:50:20;;;;;;;7.57;1.30;;;;;;;;;;5102503;28;20044;-80
2023/02/26 09:52:49;;;;;;;8.93;2.85;;;;;;;;;;5110223;28;20047;-81
2023/02/26 09:55:28;;;;;;;18.10;6.47;;;;;;;;;;5098170;28;20774;-80
2023/02/26 09:57:57;;;;;;;12.50;3.95;;;;;;;;;;5111100;28;20055;-81
2023/02/26 10:00:43;;;;;;;28.85;8.60;;;;;;;;;;5102302;28;20047;-81
2023/02/26 10:03:19;;;;;;;12.25;3.38;;;;;;;;;;5103009;28;20040;-81
2023/02/26 10:06:04;;;;;;;12.15;4.03;;;;;;;;;;5103433;28;20063;-81
2023/02/26 10:08:37;;;;;;;3.85;1.33;;;;;;;;;;5103737;28;20058;-82
2023/02/26 10:11:16;;;;;;;7.78;1.80;;;;;;;;;;5087741;28;20051;-81
2023/02/26 10:13:49;;;;;;;4.75;1.35;;;;;;;;;;5113446;28;20109;-81
2023/02/26 10:16:25;;;;;;;6.13;1.58;;;;;;;;;;5113039;28;20055;-81
2023/02/26 10:18:56;;;;;;;5.25;1.77;;;;;;;;;;5114875;28;20051;-80
2023/02/26 10:21:29;;;;;;;6.47;1.95;;;;;;;;;;5091429;28;20078;-81
2023/02/26 10:23:57;;;;;;;4.97;1.80;;;;;;;;;;5085436;28;20055;-81
2023/02/26 10:26:27;;;;;;;8.00;2.88;;;;;;;;;;5083614;28;20058;-82
2023/02/26 10:29:00;;;;;;;10.93;3.38;;;;;;;;;;5092201;28;20050;-81
2023/02/26 10:31:45;;;;;;;4.57;1.75;;;;;;;;;;5072922;28;20074;-81
2023/02/26 10:34:12;;;;;;;8.00;1.67;;;;;;;;;;5088063;28;20101;-80
2023/02/26 10:36:41;;;;;;;4.90;1.35;;;;;;;;;;5088456;28;20043;-81
2023/02/26 10:39:27;;;;;;;8.25;2.00;;;;;;;;;;5075866;28;20090;-80
2023/02/26 10:41:55;;;;;;;4.05;1.50;;;;;;;;;;5069963;28;20125;-81
2023/02/26 10:44:26;;;;;;;6.10;1.77;;;;;;;;;;5078941;28;20055;-82
2023/02/26 10:47:08;;;;;;;12.93;3.47;;;;;;;;;;5070266;28;20044;-82
2023/02/26 10:49:57;;;;;;;9.13;2.28;;;;;;;;;;5085999;28;20082;-82
2023/02/26 10:52:26;;;;;;;8.98;2.42;;;;;;;;;;5071144;28;20051;-82
2023/02/26 10:54:59;;;;;;;4.85;1.65;;;;;;;;;;5089281;28;20059;-83
2023/02/26 10:57:34;;;;;;;5.57;1.70;;;;;;;;;;5069829;28;20064;-81
2023/02/26 11:00:00;;;;;;;;;;;;;;;;;;5095854;28;20051;-80
2023/02/26 11:02:33;;;;;;;6.05;1.73;;;;;;;;;;5088279;28;19931;-81
2023/02/26 11:05:01;;;;;;;3.55;1.20;;;;;;;;;;5069428;28;20063;-81
2023/02/26 11:07:35;;;;;;;3.78;1.02;;;;;;;;;;5090856;28;20126;-81
2023/02/26 11:10:02;;;;;;;5.10;1.35;;;;;;;;;;5088557;28;20046;-81
2023/02/26 11:12:30;;;;;;;3.45;1.25;;;;;;;;;;5087718;28;20043;-82
2023/02/26 11:14:59;;;;;;;3.50;1.48;;;;;;;;;;5085148;28;20056;-81
2023/02/26 11:17:28;;;;;;;2.63;1.17;;;;;;;;;;5083412;28;20067;-82
2023/02/26 11:19:56;;;;;;;2.70;1.15;;;;;;;;;;5034783;28;20052;-82
2023/02/26 11:22:24;;;;;;;4.05;1.50;;;;;;;;;;5084806;28;20048;-82
2023/02/26 11:24:51;;;;;;;6.15;1.92;;;;;;;;;;5087931;28;20068;-83
2023/02/26 11:27:30;;;;;;;5.18;1.40;;;;;;;;;;5069249;28;20067;-83
2023/02/26 11:30:03;;;;;;;4.45;1.23;;;;;;;;;;5089952;28;20080;-83
2023/02/26 11:32:36;;;;;;;6.70;1.45;;;;;;;;;;5073297;28;20040;-83
2023/02/26 11:35:05;;;;;;;6.07;1.70;;;;;;;;;;5104699;28;20052;-84
2023/02/26 11:37:36;;;;;;;3.92;1.42;;;;;;;;;;5077942;28;20689;-82
2023/02/26 11:40:17;;;;;;;8.63;1.50;;;;;;;;;;5083238;28;20048;-82
2023/02/26 11:42:48;;;;;;;4.88;1.55;;;;;;;;;;5088253;28;20462;-83
2023/02/26 11:45:17;;;;;;;4.93;1.55;;;;;;;;;;5088026;28;20649;-82
2023/02/26 11:47:43;;;;;;;10.70;1.67;;;;;;;;;;5088053;28;20065;-82
2023/02/26 11:50:13;;;;;;;6.47;1.60;;;;;;;;;;5094910;28;20044;-81
2023/02/26 11:52:41;;;;;;;3.92;1.23;;;;;;;;;;5088115;28;20052;-81
2023/02/26 11:55:49;;;;;;;6.65;1.40;;;;;;;;;;5065596;28;20040;-83
2023/02/26 11:58:17;;;;;;;5.80;1.50;;;;;;;;;;5083303;28;20127;-82
2023/02/26 12:00:45;;;;;;;3.78;1.08;;;;;;;;;;5068161;28;20543;-81
2023/02/26 12:03:22;;;;;;;4.40;1.30;;;;;;;;;;5070031;28;20064;-82
2023/02/26 12:05:52;;;;;;;4.95;1.10;;;;;;;;;;5088236;28;20082;-80
2023/02/26 12:08:29;;;;;;;3.13;1.20;;;;;;;;;;5093449;28;20043;-81
2023/02/26 12:10:59;;;;;;;7.07;1.70;;;;;;;;;;5097784;28;20062;-82
2023/02/26 12:13:25;;;;;;;10.05;2.88;;;;;;;;;;5097186;28;20062;-81
2023/02/26 12:15:52;;;;;;;17.85;3.92;;;;;;;;;;5108944;28;20051;-82
2023/02/26 12:18:18;;;;;;;9.88;2.15;;;;;;;;;;5071865;28;20557;-82
2023/02/26 12:21:05;;;;;;;18.85;5.15;;;;;;;;;;5088631;28;20052;-81
2023/02/26 12:23:32;;;;;;;25.55;5.30;;;;;;;;;;5025884;28;20093;-81
2023/02/26 12:26:20;;;;;;;27.15;5.60;;;;;;;;;;5069918;28;20071;-80
2023/02/26 12:29:00;;;;;;;18.05;4.07;;;;;;;;;;5092141;28;20131;-84
2023/02/26 12:31:46;;;;;;;25.60;4.93;;;;;;;;;;5092881;28;20040;-81
2023/02/26 12:34:23;;;;;;;21.17;4.43;;;;;;;;;;5076864;28;20051;-82
2023/02/26 12:36:49;;;;;;;24.38;4.18;;;;;;;;;;5093578;28;20060;-82
2023/02/26 12:39:35;;;;;;;8.10;1.98;;;;;;;;;;5092613;28;20044;-81
2023/02/26 12:42:16;;;;;;;9.23;2.53;;;;;;;;;;5071340;28;20063;-82
2023/02/26 12:44:51;;;;;;;11.38;3.00;;;;;;;;;;5065021;28;20060;-81
2023/02/26 12:47:30;;;;;;;1.85;0.75;;;;;;;;;;5080511;28;20055;-83
2023/02/26 12:50:06;;;;;;;4.35;1.50;;;;;;;;;;5062757;28;20156;-81
2023/02/26 12:52:35;;;;;;;6.93;1.85;;;;;;;;;;5090774;28;20048;-82
2023/02/26 12:55:17;;;;;;;4.68;1.40;;;;;;;;;;5087299;28;20045;-82
2023/02/26 12:57:48;;;;;;;3.50;0.90;;;;;;;;;;5072395;28;20130;-82
2023/02/26 13:00:21;;;;;;;7.30;1.45;;;;;;;;;;5094137;28;20040;-82
2023/02/26 13:02:53;;;;;;;4.88;1.38;;;;;;;;;;5095455;28;20048;-84
2023/02/26 13:05:35;;;;;;;2.83;0.90;;;;;;;;;;5113474;28;20646;-83
2023/02/26 13:08:08;;;;;;;4.07;1.10;;;;;;;;;;5089374;28;20072;-82
2023/02/26 13:10:58;;;;;;;4.75;1.25;;;;;;;;;;5075291;28;20066;-84
2023/02/26 13:13:47;;;;;;;8.05;1.38;;;;;;;;;;5081915;28;20048;-84
2023/02/26 13:16:23;;;;;;;4.53;0.90;;;;;;;;;;5090128;28;20072;-82
2023/02/26 13:19:05;;;;;;;4.47;0.90;;;;;;;;;;5089782;28;20133;-84
2023/02/26 13:21:36;;;;;;;1.15;0.63;;;;;;;;;;5090344;28;20123;-82
2023/02/26 13:24:09;;;;;;;3.10;0.80;;;;;;;;;;5089958;28;20459;-82
2023/02/26 13:26:37;;;;;;;1.52;0.82;;;;;;;;;;5093870;28;20062;-85
2023/02/26 13:29:08;;;;;;;2.58;0.82;;;;;;;;;;5109523;28;20067;-83
2023/02/26 13:31:40;;;;;;;4.85;1.13;;;;;;;;;;5085430;28;20112;-84
2023/02/26 13:34:12;;;;;;;3.67;0.90;;;;;;;;;;5089247;28;20274;-83
2023/02/26 13:36:39;;;;;;;5.13;1.10;;;;;;;;;;5081031;28;20143;-83
2023/02/26 13:39:28;;;;;;;5.22;1.90;;;;;;;;;;5058546;28;20119;-84
2023/02/26 13:42:13;;;;;;;4.57;1.30;;;;;;;;;;5071544;28;20048;-82
2023/02/26 13:44:58;;;;;;;5.32;1.52;;;;;;;;;;5061421;28;20051;-84
2023/02/26 13:47:41;;;;;;;9.87;2.80;;;;;;;;;;5066631;28;20123;-83
2023/02/26 13:50:17;;;;;;;15.52;3.38;;;;;;;;;;5073613;28;20135;-83
2023/02/26 13:52:56;;;;;;;12.05;4.80;;;;;;;;;;5089782;28;20147;-84
2023/02/26 13:55:43;;;;;;;4.22;1.70;;;;;;;;;;5063048;28;20036;-83
2023/02/26 13:58:17;;;;;;;5.68;2.03;;;;;;;;;;5088068;28;20063;-84
2023/02/26 14:00:56;;;;;;;7.85;1.63;;;;;;;;;;5089465;28;20075;-83
2023/02/26 14:03:23;;;;;;;3.33;1.33;;;;;;;;;;5091780;28;20130;-83
2023/02/26 14:05:52;;;;;;;4.35;1.50;;;;;;;;;;5093285;28;20112;-83
2023/02/26 14:08:27;;;;;;;3.42;0.85;;;;;;;;;;5092664;28;20056;-83
2023/02/26 14:10:55;;;;;;;3.05;0.85;;;;;;;;;;5052520;28;20075;-84
2023/02/26 14:13:41;;;;;;;2.72;0.90;;;;;;;;;;5072386;28;20040;-83
2023/02/26 14:16:28;;;;;;;0.90;0.53;;;;;;;;;;5064295;28;20036;-84
2023/02/26 14:19:17;;;;;;;2.47;0.80;;;;;;;;;;5092310;28;20761;-83
2023/02/26 14:21:49;;;;;;;1.38;0.50;;;;;;;;;;5074596;28;20055;-84
2023/02/26 14:24:36;;;;;;;2.58;0.98;;;;;;;;;;5078851;28;20104;-82
2023/02/26 14:27:06;;;;;;;2.13;0.73;;;;;;;;;;5087550;28;20048;-83
2023/02/26 14:29:41;;;;;;;3.65;1.23;;;;;;;;;;5080310;28;20055;-83
2023/02/26 14:32:12;;;;;;;2.80;0.63;;;;;;;;;;5078063;28;20059;-84
2023/02/26 14:34:45;;;;;;;2.92;1.05;;;;;;;;;;5077647;28;20056;-84
2023/02/26 14:37:17;;;;;;;4.82;1.00;;;;;;;;;;5081456;28;20448;-83
2023/02/26 14:40:12;;;;;;;2.20;0.68;;;;;;;;;;5060192;28;20922;-84
2023/02/26 14:42:59;;;;;;;2.00;0.70;;;;;;;;;;5060982;28;20054;-82
2023/02/26 14:45:38;;;;;;;3.97;0.80;;;;;;;;;;5078515;28;20047;-83
2023/02/26 14:48:06;;;;;;;4.03;0.63;;;;;;;;;;5090469;28;20051;-81
2023/02/26 14:50:55;;;;;;;4.50;0.90;;;;;;;;;;5088052;28;20493;-83
2023/02/26 14:53:22;;;;;;;2.97;0.82;;;;;;;;;;5045156;28;20072;-83
2023/02/26 14:56:08;;;;;;;1.52;0.57;;;;;;;;;;5068019;28;20052;-83
2023/02/26 14:58:52;;;;;;;4.72;1.20;;;;;;;;;;5087157;28;20040;-83
2023/02/26 15:01:37;;;;;;;10.60;2.00;;;;;;;;;;5092294;28;20052;-82
2023/02/26 15:04:20;;;;;;;10.02;2.72;;;;;;;;;;5070218;28;20051;-83